De Haan, Belgium
Current Conditions -  °F | °C
As of 6:20 PM on Sunday 21 Dec 2014 (Local Time) from EBOS Reporting Station
Broken Clouds Broken Clouds  
Wind Chill: 50°   Ceiling: 2500
Heat Index: 50°   Visibility: 6mi
Dew Point: 46°   Wind: 21mph
Humidity: 87%   Direction: 250°WSW
Pressure: 30.27"   Gusts: NA
Location:  51.27°N, 3.03°E
Report Text: EBOS 211720Z 25018KT 9999 SCT016 BKN025 10/08 Q1025 TEMPO BKN012
Loading
Personal Weather Stations






























Interactive Weather Map New forecast layout! Learn more

10-Day Weather Forecast

Advertisements
Track Severe Weather on mobile